createdAt,value
2017-09-23T00:00:46.090Z,49.60
2017-09-23T00:03:13.601Z,46.60
2017-09-23T00:05:41.110Z,43.77
2017-09-23T00:08:08.606Z,44.47
2017-09-23T00:10:36.889Z,49.40
2017-09-23T00:13:04.397Z,49.47
2017-09-23T00:15:32.001Z,48.23
2017-09-23T00:17:59.500Z,45.47
2017-09-23T00:20:27.777Z,43.93
2017-09-23T00:22:55.270Z,46.73
2017-09-23T00:25:22.783Z,49.37
2017-09-23T00:27:50.283Z,43.50
2017-09-23T00:30:18.564Z,49.30
2017-09-23T00:32:46.062Z,48.00
2017-09-23T00:35:13.575Z,44.17
2017-09-23T00:37:41.102Z,46.10
2017-09-23T00:40:08.669Z,52.77
2017-09-23T00:42:36.186Z,50.67
2017-09-23T00:45:03.693Z,49.40
2017-09-23T00:47:31.210Z,46.70
2017-09-23T00:49:58.826Z,48.73
2017-09-23T00:52:26.369Z,48.10
2017-09-23T00:54:53.885Z,52.23
2017-09-23T00:57:22.174Z,50.57
2017-09-23T00:59:49.689Z,54.20
2017-09-23T01:02:17.975Z,51.20
2017-09-23T01:04:45.493Z,52.23
2017-09-23T01:07:13.754Z,48.30
2017-09-23T01:09:42.150Z,54.53
2017-09-23T01:12:09.670Z,49.20
2017-09-23T01:14:37.933Z,50.20
2017-09-23T01:17:06.217Z,53.60
2017-09-23T01:19:33.710Z,53.60
2017-09-23T01:22:01.238Z,54.90
2017-09-23T01:24:30.245Z,56.50
2017-09-23T01:26:58.541Z,50.80
2017-09-23T01:29:26.098Z,53.00
2017-09-23T01:31:53.625Z,55.43
2017-09-23T01:34:21.116Z,50.80
2017-09-23T01:36:49.393Z,50.43
2017-09-23T01:39:16.974Z,54.13
2017-09-23T01:41:44.497Z,49.53
2017-09-23T01:44:12.757Z,52.20
2017-09-23T01:46:41.037Z,53.10
2017-09-23T01:49:08.540Z,52.77
2017-09-23T01:51:36.036Z,53.57
2017-09-23T01:54:03.549Z,52.47
2017-09-23T01:56:31.826Z,50.10
2017-09-23T01:58:59.335Z,45.87
2017-09-23T02:01:26.829Z,49.07
2017-09-23T02:03:54.343Z,49.40
2017-09-23T02:06:22.609Z,48.43
2017-09-23T02:08:50.116Z,48.57
2017-09-23T02:11:17.618Z,50.60
2017-09-23T02:13:45.138Z,45.57
2017-09-23T02:16:12.694Z,46.60
2017-09-23T02:18:40.200Z,48.47
2017-09-23T02:21:07.794Z,49.77
2017-09-23T02:23:36.145Z,46.03
2017-09-23T02:26:03.657Z,48.87
2017-09-23T02:28:31.922Z,52.03
2017-09-23T02:31:00.195Z,49.33
2017-09-23T02:33:27.690Z,54.10
2017-09-23T02:35:55.205Z,48.10
2017-09-23T02:38:22.702Z,55.97
2017-09-23T02:40:50.281Z,52.03
2017-09-23T02:43:17.833Z,55.30
2017-09-23T02:45:45.370Z,52.90
2017-09-23T02:48:12.869Z,54.17
2017-09-23T02:50:40.369Z,54.70
2017-09-23T02:53:07.902Z,53.83
2017-09-23T02:55:35.401Z,57.17
2017-09-23T02:58:02.990Z,58.13
2017-09-23T03:00:30.494Z,56.70
2017-09-23T03:02:58.781Z,56.40
2017-09-23T03:05:26.333Z,57.00
2017-09-23T03:07:53.881Z,53.70
2017-09-23T03:10:21.431Z,55.97
2017-09-23T03:12:48.934Z,54.60
2017-09-23T03:15:17.232Z,53.40
2017-09-23T03:17:44.878Z,53.77
2017-09-23T03:20:12.386Z,49.83
2017-09-23T03:22:40.648Z,50.47
2017-09-23T03:25:08.933Z,52.60
2017-09-23T03:27:36.448Z,51.17
2017-09-23T03:30:04.152Z,52.03
2017-09-23T03:32:31.673Z,53.37
2017-09-23T03:34:59.201Z,52.37
2017-09-23T03:37:27.460Z,56.07
2017-09-23T03:39:55.718Z,49.87
2017-09-23T03:42:24.002Z,52.93
2017-09-23T03:44:51.509Z,51.77
2017-09-23T03:47:19.081Z,44.63
2017-09-23T03:49:46.583Z,53.87
2017-09-23T03:52:14.862Z,48.53
2017-09-23T03:54:43.175Z,50.33
2017-09-23T03:57:10.716Z,49.73
2017-09-23T03:59:38.250Z,47.77
2017-09-23T04:02:05.785Z,47.90
2017-09-23T04:04:33.353Z,44.03
2017-09-23T04:07:00.853Z,49.33
2017-09-23T04:09:29.134Z,48.60
2017-09-23T04:11:56.681Z,46.60
2017-09-23T04:14:24.223Z,45.17
2017-09-23T04:16:51.725Z,46.37
2017-09-23T04:19:19.240Z,46.17
2017-09-23T04:21:46.733Z,49.63
2017-09-23T04:24:15.014Z,44.60
2017-09-23T04:26:42.514Z,49.20
2017-09-23T04:29:10.044Z,41.50
2017-09-23T04:31:37.547Z,49.10
2017-09-23T04:34:05.089Z,45.53
2017-09-23T04:36:32.614Z,44.60
2017-09-23T04:39:00.133Z,44.60
2017-09-23T04:41:27.644Z,42.20
2017-09-23T04:43:55.133Z,43.93
2017-09-23T04:46:23.407Z,39.00
2017-09-23T04:48:51.669Z,42.47
2017-09-23T04:51:19.180Z,39.73
2017-09-23T04:53:46.771Z,42.80
2017-09-23T04:56:14.318Z,38.50
2017-09-23T04:58:41.820Z,41.43
2017-09-23T05:01:09.406Z,41.27
2017-09-23T05:03:36.962Z,40.23
2017-09-23T05:06:04.449Z,40.20
2017-09-23T05:08:31.965Z,41.47
2017-09-23T05:10:59.469Z,38.57
2017-09-23T05:13:26.977Z,36.83
2017-09-23T05:15:54.568Z,39.90
2017-09-23T05:18:22.115Z,38.37
2017-09-23T05:20:49.653Z,38.90
2017-09-23T05:23:17.206Z,41.30
2017-09-23T05:25:44.709Z,39.67
2017-09-23T05:28:13.016Z,38.07
2017-09-23T05:30:40.545Z,42.93
2017-09-23T05:33:08.045Z,40.57
2017-09-23T05:35:35.569Z,38.17
2017-09-23T05:38:03.061Z,35.57
2017-09-23T05:40:30.641Z,40.77
2017-09-23T05:42:58.141Z,41.03
2017-09-23T05:45:26.425Z,41.13
2017-09-23T05:47:53.923Z,42.10
2017-09-23T05:50:22.966Z,42.13
2017-09-23T05:52:50.465Z,40.00
2017-09-23T05:55:18.737Z,37.63
2017-09-23T05:57:46.242Z,41.57
2017-09-23T06:00:13.754Z,37.73
2017-09-23T06:02:41.249Z,42.73
2017-09-23T06:05:09.541Z,42.23
2017-09-23T06:07:37.042Z,41.70
2017-09-23T06:10:04.628Z,41.93
2017-09-23T06:12:32.172Z,37.90
2017-09-23T06:14:59.670Z,39.27
2017-09-23T06:17:27.179Z,42.20
2017-09-23T06:19:54.672Z,40.83
2017-09-23T06:22:22.954Z,42.63
2017-09-23T06:24:50.449Z,45.83
2017-09-23T06:27:17.960Z,41.50
2017-09-23T06:29:45.455Z,43.40
2017-09-23T06:32:13.741Z,43.77
2017-09-23T06:34:41.248Z,42.87
2017-09-23T06:37:10.270Z,41.80
2017-09-23T06:39:37.841Z,40.60
2017-09-23T06:42:05.361Z,40.40
2017-09-23T06:44:32.852Z,40.37
2017-09-23T06:47:00.344Z,41.47
2017-09-23T06:49:27.860Z,38.87
2017-09-23T06:51:56.117Z,39.27
2017-09-23T06:54:23.689Z,37.67
2017-09-23T06:56:51.177Z,40.73
2017-09-23T06:59:18.680Z,37.60
2017-09-23T07:01:46.186Z,38.47
2017-09-23T07:04:13.689Z,39.97
2017-09-23T07:06:41.210Z,37.40
2017-09-23T07:09:08.717Z,37.97
2017-09-23T07:11:36.220Z,37.90
2017-09-23T07:14:03.729Z,36.77
2017-09-23T07:16:31.228Z,37.80
2017-09-23T07:18:58.760Z,35.70
2017-09-23T07:21:26.253Z,36.83
2017-09-23T07:23:54.509Z,38.50
2017-09-23T07:26:22.781Z,37.20
2017-09-23T07:28:50.276Z,35.60
2017-09-23T07:31:17.794Z,36.80
2017-09-23T07:33:45.297Z,37.27
2017-09-23T07:36:12.861Z,37.23
2017-09-23T07:38:40.353Z,38.50
2017-09-23T07:41:07.958Z,39.07
2017-09-23T07:43:35.453Z,37.33
2017-09-23T07:46:03.042Z,38.20
2017-09-23T07:48:30.536Z,36.30
2017-09-23T07:50:58.025Z,38.60
2017-09-23T07:53:25.565Z,37.07
2017-09-23T07:55:53.058Z,36.53
2017-09-23T07:58:20.625Z,35.33
2017-09-23T08:00:48.917Z,35.80
2017-09-23T08:03:16.434Z,37.20
2017-09-23T08:05:44.746Z,36.63
2017-09-23T08:08:12.261Z,35.90
2017-09-23T08:10:39.754Z,35.33
2017-09-23T08:13:07.257Z,37.00
2017-09-23T08:15:34.753Z,40.30
2017-09-23T08:18:02.265Z,36.97
2017-09-23T08:20:29.757Z,38.73
2017-09-23T08:22:58.042Z,33.67
2017-09-23T08:25:25.542Z,39.93
2017-09-23T08:27:53.071Z,39.13
2017-09-23T08:30:20.568Z,40.30
2017-09-23T08:32:48.069Z,41.33
2017-09-23T08:35:15.586Z,40.07
2017-09-23T08:37:43.855Z,40.33
2017-09-23T08:40:12.147Z,39.37
2017-09-23T08:42:39.641Z,40.40
2017-09-23T08:45:07.156Z,39.60
2017-09-23T08:47:34.656Z,40.70
2017-09-23T08:50:02.173Z,38.80
2017-09-23T08:52:29.673Z,42.50
2017-09-23T08:54:57.178Z,42.43
2017-09-23T08:57:24.677Z,41.87
2017-09-23T08:59:52.198Z,43.97
2017-09-23T09:02:19.721Z,42.83
2017-09-23T09:04:47.229Z,41.30
2017-09-23T09:07:14.726Z,41.97
2017-09-23T09:09:42.240Z,43.27
2017-09-23T09:12:09.737Z,43.47
2017-09-23T09:14:37.230Z,39.90
2017-09-23T09:17:04.745Z,45.37
2017-09-23T09:19:32.238Z,44.47
2017-09-23T09:21:59.751Z,48.17
2017-09-23T09:24:27.250Z,43.40
2017-09-23T09:26:54.761Z,44.60
2017-09-23T09:29:22.253Z,44.27
2017-09-23T09:31:49.769Z,44.90
2017-09-23T09:34:17.270Z,41.17
2017-09-23T09:36:44.825Z,47.17
2017-09-23T09:39:12.321Z,44.37
2017-09-23T09:41:39.824Z,42.27
2017-09-23T09:44:07.313Z,44.10
2017-09-23T09:46:34.825Z,44.17
2017-09-23T09:49:02.401Z,46.40
2017-09-23T09:51:29.904Z,44.73
2017-09-23T09:53:58.166Z,46.53
2017-09-23T09:56:26.450Z,43.27
2017-09-23T09:58:53.986Z,47.07
2017-09-23T10:01:21.544Z,44.60
2017-09-23T10:03:49.056Z,43.77
2017-09-23T10:06:17.332Z,47.00
2017-09-23T10:08:44.844Z,44.60
2017-09-23T10:11:12.342Z,42.80
2017-09-23T10:13:39.855Z,46.20
2017-09-23T10:16:07.349Z,45.43
2017-09-23T10:18:35.725Z,44.43
2017-09-23T10:21:03.217Z,42.10
2017-09-23T10:23:30.733Z,46.33
2017-09-23T10:25:58.230Z,41.80
2017-09-23T10:28:25.757Z,46.37
2017-09-23T10:30:54.045Z,42.73
2017-09-23T10:33:21.542Z,43.47
2017-09-23T10:35:49.155Z,44.27
2017-09-23T10:38:16.649Z,41.80
2017-09-23T10:40:44.942Z,44.63
2017-09-23T10:43:12.441Z,44.60
2017-09-23T10:45:39.950Z,44.33
2017-09-23T10:48:07.493Z,41.67
2017-09-23T10:50:35.001Z,41.70
2017-09-23T10:53:02.497Z,43.27
2017-09-23T10:55:30.013Z,41.80
2017-09-23T10:57:57.506Z,39.77
2017-09-23T11:00:25.033Z,36.33
2017-09-23T11:02:52.527Z,41.40
2017-09-23T11:05:20.016Z,40.07
2017-09-23T11:07:47.525Z,42.33
2017-09-23T11:10:15.057Z,40.37
2017-09-23T11:12:42.606Z,38.97
2017-09-23T11:15:10.097Z,38.50
2017-09-23T11:17:37.689Z,38.83
2017-09-23T11:20:05.186Z,36.20
2017-09-23T11:22:32.710Z,40.50
2017-09-23T11:25:00.198Z,39.17
2017-09-23T11:27:28.456Z,39.47
2017-09-23T11:29:56.730Z,38.63
2017-09-23T11:32:24.225Z,39.50
2017-09-23T11:34:51.848Z,38.43
2017-09-23T11:37:19.370Z,39.90
2017-09-23T11:39:46.918Z,39.77
2017-09-23T11:42:14.409Z,36.63
2017-09-23T11:44:42.024Z,36.70
2017-09-23T11:47:09.529Z,39.83
2017-09-23T11:49:37.908Z,38.93
2017-09-23T11:52:05.401Z,37.40
2017-09-23T11:54:33.022Z,37.63
2017-09-23T11:57:00.516Z,39.37
2017-09-23T11:59:28.806Z,38.27
2017-09-23T12:01:56.301Z,36.20
2017-09-23T12:04:23.889Z,36.90
2017-09-23T12:06:51.436Z,37.80
2017-09-23T12:09:18.978Z,34.43
2017-09-23T12:11:46.531Z,33.40
2017-09-23T12:14:14.272Z,33.80
2017-09-23T12:16:41.786Z,30.83
2017-09-23T12:19:10.049Z,32.50
2017-09-23T12:21:38.327Z,34.80
2017-09-23T12:24:05.885Z,33.20
2017-09-23T12:26:33.436Z,31.27
2017-09-23T12:29:01.040Z,31.53
2017-09-23T12:31:29.535Z,32.77
2017-09-23T12:33:57.049Z,30.70
2017-09-23T12:36:24.635Z,29.53
2017-09-23T12:38:52.191Z,28.40
2017-09-23T12:41:19.681Z,30.30
2017-09-23T12:43:47.962Z,28.17
2017-09-23T12:46:15.453Z,30.20
2017-09-23T12:48:43.057Z,29.83
2017-09-23T12:51:10.550Z,28.43
2017-09-23T12:53:38.062Z,28.67
2017-09-23T12:56:05.558Z,28.83
2017-09-23T12:58:33.838Z,28.00
2017-09-23T13:01:01.338Z,28.00
2017-09-23T13:03:28.944Z,29.33
2017-09-23T13:05:56.436Z,26.87
2017-09-23T13:08:23.950Z,27.30
2017-09-23T13:10:51.438Z,30.87
2017-09-23T13:13:19.734Z,30.20
2017-09-23T13:15:47.229Z,30.20
2017-09-23T13:18:14.729Z,30.63
2017-09-23T13:20:42.237Z,28.83
2017-09-23T13:23:10.537Z,29.90
2017-09-23T13:25:38.069Z,29.77
2017-09-23T13:28:05.610Z,31.70
2017-09-23T13:30:33.150Z,28.57
2017-09-23T13:33:00.651Z,28.57
2017-09-23T13:35:28.166Z,30.70
2017-09-23T13:37:55.658Z,28.27
2017-09-23T13:40:23.942Z,30.70
2017-09-23T13:42:51.441Z,28.83
2017-09-23T13:45:19.034Z,28.87
2017-09-23T13:47:46.819Z,28.47
2017-09-23T13:50:14.322Z,29.37
2017-09-23T13:52:41.832Z,28.77
2017-09-23T13:55:09.330Z,23.70
2017-09-23T13:57:36.857Z,26.80
2017-09-23T14:00:04.352Z,24.83
2017-09-23T14:02:31.941Z,27.20
2017-09-23T14:04:59.432Z,24.60
2017-09-23T14:07:27.086Z,24.10
2017-09-23T14:09:54.697Z,24.00
2017-09-23T14:12:23.053Z,25.53
2017-09-23T14:14:50.546Z,24.83
2017-09-23T14:17:18.125Z,23.50
2017-09-23T14:19:45.673Z,24.13
2017-09-23T14:22:13.173Z,23.23
2017-09-23T14:24:40.756Z,24.83
2017-09-23T14:27:08.246Z,24.50
2017-09-23T14:29:35.753Z,25.13
2017-09-23T14:32:03.286Z,28.87
2017-09-23T14:34:30.794Z,29.37
2017-09-23T14:36:58.285Z,26.00
2017-09-23T14:39:25.821Z,28.50
2017-09-23T14:41:53.314Z,29.50
2017-09-23T14:44:21.030Z,29.53
2017-09-23T14:46:48.657Z,26.63
2017-09-23T14:49:16.270Z,28.40
2017-09-23T14:51:43.840Z,26.43
2017-09-23T14:54:11.423Z,26.90
2017-09-23T14:56:39.838Z,28.90
2017-09-23T14:59:08.142Z,25.53
2017-09-23T15:01:35.749Z,27.03
2017-09-23T15:04:04.103Z,26.50
2017-09-23T15:06:32.447Z,26.03
2017-09-23T15:09:00.275Z,25.73
2017-09-23T15:11:27.922Z,27.50
2017-09-23T15:13:55.595Z,24.57
2017-09-23T15:16:23.198Z,24.03
2017-09-23T15:18:50.742Z,25.20
2017-09-23T15:21:18.262Z,23.10
2017-09-23T15:23:45.811Z,19.53
2017-09-23T15:26:13.327Z,20.37
2017-09-23T15:28:41.588Z,19.93
2017-09-23T15:31:09.844Z,21.73
2017-09-23T15:33:38.133Z,22.17
2017-09-23T15:36:05.679Z,28.57
2017-09-23T15:38:33.193Z,25.17
2017-09-23T15:41:01.457Z,24.23
2017-09-23T15:43:29.736Z,25.40
2017-09-23T15:45:57.239Z,23.40
2017-09-23T15:48:24.753Z,21.53
2017-09-23T15:50:52.273Z,22.37
2017-09-23T15:53:19.785Z,20.30
2017-09-23T15:55:48.082Z,19.53
2017-09-23T15:58:15.607Z,20.97
2017-09-23T16:00:43.870Z,19.80
2017-09-23T16:03:11.450Z,21.10
2017-09-23T16:05:38.942Z,21.13
2017-09-23T16:08:07.217Z,21.80
2017-09-23T16:10:35.823Z,24.13
2017-09-23T16:13:03.777Z,23.53
2017-09-23T16:15:31.321Z,24.57
2017-09-23T16:17:58.845Z,21.73
2017-09-23T16:20:26.349Z,22.70
2017-09-23T16:22:53.849Z,22.50
2017-09-23T16:25:21.357Z,23.70
2017-09-23T16:27:48.857Z,23.60
2017-09-23T16:30:16.367Z,25.50
2017-09-23T16:32:43.865Z,23.23
2017-09-23T16:35:11.401Z,21.87
2017-09-23T16:37:38.897Z,21.63
2017-09-23T16:40:06.434Z,22.47
2017-09-23T16:42:33.973Z,21.30
2017-09-23T16:45:01.474Z,22.33
2017-09-23T16:47:29.057Z,20.70
2017-09-23T16:49:56.549Z,21.40
2017-09-23T16:52:24.057Z,24.20
2017-09-23T16:54:51.553Z,23.50
2017-09-23T16:57:19.138Z,22.83
2017-09-23T16:59:46.641Z,25.67
2017-09-23T17:02:14.328Z,26.30
2017-09-23T17:04:41.825Z,23.97
2017-09-23T17:07:09.409Z,25.47
2017-09-23T17:09:36.953Z,26.97
2017-09-23T17:12:04.505Z,25.20
2017-09-23T17:14:32.008Z,26.60
2017-09-23T17:16:59.589Z,29.07
2017-09-23T17:19:27.080Z,31.97
2017-09-23T17:21:54.673Z,33.93
2017-09-23T17:24:22.230Z,36.40
2017-09-23T17:26:49.729Z,35.00
2017-09-23T17:29:17.245Z,37.87
2017-09-23T17:31:44.749Z,38.10
2017-09-23T17:34:12.293Z,38.10
2017-09-23T17:36:39.789Z,36.00
2017-09-23T17:39:07.382Z,35.33
2017-09-23T17:41:34.934Z,31.33
2017-09-23T17:44:02.473Z,36.07
2017-09-23T17:46:30.047Z,35.10
2017-09-23T17:48:57.541Z,40.77
2017-09-23T17:51:25.797Z,38.63
2017-09-23T17:53:54.074Z,41.27
2017-09-23T17:56:21.564Z,41.30
2017-09-23T17:58:49.089Z,42.53
2017-09-23T18:01:16.609Z,43.40
2017-09-23T18:03:44.106Z,40.37
2017-09-23T18:06:11.621Z,39.83
2017-09-23T18:08:39.108Z,39.87
2017-09-23T18:11:06.616Z,41.23
2017-09-23T18:13:34.105Z,39.07
2017-09-23T18:16:02.377Z,34.07
2017-09-23T18:18:29.873Z,36.70
2017-09-23T18:20:57.390Z,37.40
2017-09-23T18:23:24.922Z,35.77
2017-09-23T18:25:52.425Z,39.87
2017-09-23T18:28:20.007Z,32.07
2017-09-23T18:30:47.537Z,37.30
2017-09-23T18:33:15.101Z,34.90
2017-09-23T18:35:42.641Z,38.50
2017-09-23T18:38:10.149Z,37.23
2017-09-23T18:40:38.414Z,36.57
2017-09-23T18:43:06.693Z,38.30
2017-09-23T18:45:34.191Z,41.50
2017-09-23T18:48:01.701Z,37.87
2017-09-23T18:50:29.193Z,39.10
2017-09-23T18:52:56.772Z,42.40
2017-09-23T18:55:24.317Z,40.70
2017-09-23T18:57:51.825Z,40.40
2017-09-23T19:00:19.323Z,42.90
2017-09-23T19:02:46.846Z,38.67
2017-09-23T19:05:14.345Z,42.53
2017-09-23T19:07:41.854Z,42.90
2017-09-23T19:10:09.379Z,42.23
2017-09-23T19:12:36.885Z,38.00
2017-09-23T19:15:05.157Z,45.87
2017-09-23T19:17:32.734Z,39.80
2017-09-23T19:20:00.241Z,42.27
2017-09-23T19:22:28.497Z,39.73
2017-09-23T19:24:56.005Z,37.10
2017-09-23T19:27:23.497Z,42.33
2017-09-23T19:29:51.777Z,42.30
2017-09-23T19:32:19.321Z,39.47
2017-09-23T19:34:46.878Z,45.30
2017-09-23T19:37:14.517Z,45.10
2017-09-23T19:39:42.063Z,41.50
2017-09-23T19:42:09.570Z,42.70
2017-09-23T19:44:37.105Z,43.10
2017-09-23T19:47:04.606Z,42.10
2017-09-23T19:49:32.105Z,40.70
2017-09-23T19:51:59.622Z,36.70
2017-09-23T19:54:27.150Z,39.90
2017-09-23T19:56:54.697Z,39.50
2017-09-23T19:59:22.197Z,37.07
2017-09-23T20:01:49.714Z,38.03
2017-09-23T20:04:17.216Z,40.17
2017-09-23T20:06:44.868Z,42.30
2017-09-23T20:09:12.362Z,37.60
2017-09-23T20:11:40.638Z,38.10
2017-09-23T20:14:08.899Z,38.07
2017-09-23T20:16:36.479Z,38.30
2017-09-23T20:19:03.979Z,37.57
2017-09-23T20:21:31.493Z,39.80
2017-09-23T20:23:58.981Z,40.90
2017-09-23T20:26:27.274Z,45.13
2017-09-23T20:28:54.765Z,42.73
2017-09-23T20:31:23.761Z,48.87
2017-09-23T20:33:52.049Z,51.30
2017-09-23T20:36:19.588Z,53.10
2017-09-23T20:38:47.099Z,52.57
2017-09-23T20:41:14.598Z,48.97
2017-09-23T20:43:42.104Z,47.00
2017-09-23T20:46:09.597Z,46.63
2017-09-23T20:48:37.116Z,49.43
2017-09-23T20:51:05.373Z,60.30
2017-09-23T20:53:32.889Z,50.93
2017-09-23T20:56:00.377Z,48.80
2017-09-23T20:58:27.910Z,61.40
2017-09-23T21:00:56.193Z,60.30
2017-09-23T21:03:23.920Z,44.63
2017-09-23T21:05:51.432Z,40.90
2017-09-23T21:08:18.922Z,39.40
2017-09-23T21:10:46.431Z,39.53
2017-09-23T21:13:14.694Z,54.90
2017-09-23T21:15:42.976Z,42.60
2017-09-23T21:18:10.473Z,49.50
2017-09-23T21:20:37.996Z,57.27
2017-09-23T21:23:05.501Z,70.30
2017-09-23T21:25:33.060Z,65.17
2017-09-23T21:28:00.557Z,85.33
2017-09-23T21:30:28.077Z,68.43
2017-09-23T21:32:55.568Z,54.30
2017-09-23T21:35:23.946Z,57.87
2017-09-23T21:37:51.446Z,53.73
2017-09-23T21:40:19.733Z,47.07
2017-09-23T21:42:48.033Z,51.10
2017-09-23T21:45:15.533Z,48.20
2017-09-23T21:47:43.042Z,50.60
2017-09-23T21:50:10.530Z,49.03
2017-09-23T21:52:38.810Z,46.03
2017-09-23T21:55:06.313Z,43.87
2017-09-23T21:57:33.909Z,47.07
2017-09-23T22:00:01.402Z,49.80
2017-09-23T22:02:29.677Z,48.47
2017-09-23T22:04:57.970Z,45.77
2017-09-23T22:07:25.485Z,49.50
2017-09-23T22:09:53.769Z,47.30
2017-09-23T22:12:21.285Z,48.63
2017-09-23T22:14:49.543Z,46.47
2017-09-23T22:17:17.822Z,43.07
2017-09-23T22:19:46.104Z,45.33
2017-09-23T22:22:13.594Z,43.20
2017-09-23T22:24:41.097Z,43.37
2017-09-23T22:27:08.594Z,46.93
2017-09-23T22:29:36.166Z,47.53
2017-09-23T22:32:03.678Z,47.63
2017-09-23T22:34:31.264Z,45.17
2017-09-23T22:36:58.757Z,46.30
2017-09-23T22:39:26.277Z,52.57
2017-09-23T22:41:53.773Z,49.53
2017-09-23T22:44:22.036Z,47.90
2017-09-23T22:46:50.311Z,50.00
2017-09-23T22:49:17.805Z,50.30
2017-09-23T22:51:45.318Z,46.27
2017-09-23T22:54:12.814Z,40.23
2017-09-23T22:56:41.102Z,46.53
2017-09-23T22:59:08.593Z,43.67
2017-09-23T23:01:36.105Z,43.20
2017-09-23T23:04:03.638Z,47.13
2017-09-23T23:06:31.153Z,46.37
2017-09-23T23:08:58.646Z,47.07
2017-09-23T23:11:26.200Z,47.20
2017-09-23T23:13:53.693Z,48.23
2017-09-23T23:16:21.185Z,48.17
2017-09-23T23:18:48.773Z,47.77
2017-09-23T23:21:16.269Z,49.07
2017-09-23T23:23:43.788Z,51.30
2017-09-23T23:26:11.292Z,53.33
2017-09-23T23:28:39.569Z,45.50
2017-09-23T23:31:07.114Z,48.77
2017-09-23T23:33:34.637Z,50.17
2017-09-23T23:36:02.897Z,46.27
2017-09-23T23:38:31.173Z,41.17
2017-09-23T23:40:58.673Z,40.83
2017-09-23T23:43:26.181Z,41.30
2017-09-23T23:45:53.676Z,40.50
2017-09-23T23:48:21.946Z,43.93
2017-09-23T23:50:50.201Z,41.87
2017-09-23T23:53:18.481Z,40.67
2017-09-23T23:55:46.033Z,41.20
2017-09-23T23:58:13.530Z,41.57
